Flugplatz Weißenburg-Wülzburg (UL)

Hier findest Du alle Informationen zum Flugplatz Weißenburg-Wülzburg (UL).

Informationen für Piloten zum Flugplatz Weißenburg-Wülzburg

Hier findest Du alle relevanten Informationen, die Du als Pilot benötigst, um Weißenburg-Wülzburg anzufliegen.

Flugplatz: Weißenburg-Wülzburg ICAO-Code: UL Flugplatz
Frequenz Turm: 126,035 Mhz GAFOR Gebiet: 56
Frequenz Ground: 126,035 Mhz Mogas: ja
Platzrunde: S 2800 ft Landegebühr: 5,00 €
Platzhöhe: 2015 ft Sunrise: 03:09 Uhr UTC
Pisten: 05/23 - 700 m x 30 m, ASPH Sunset: 19:26 Uhr UTC

Mitglieder, die in Weißenburg-Wülzburg fliegen

Flugwetter am Flugplatz Weißenburg-Wülzburg

Die METAR Information stammen aus EDDN (52.75 km entfernt).

METAR Code:
2024/06/08 09:50
EDDN 080950Z AUTO 21010KT 160V250 CAVOK 24/11 Q1013 NOSIG

Flugschulen am Flugplatz Weißenburg-Wülzburg

Am Flugplatz Weißenburg-Wülzburg gibt es leider keine Flugschule.

Benachbarte Flugplätze und Flugschulen

Es gibt 22 weitere Flugplätze in einem Umkreis von 50 km um den Flugplatz Weißenburg-Wülzburg.

Jetzt anmelden

Passwort vergessen

Umfrage Archiv

Wie häufig haltet Ihr die Halbkreisflugregel ein?

Eher häufig!
36 %
Immer!
30.7 %
Hin und wieder!
16.7 %
Nie!
9.5 %
Eher selten!
7.2 %
Stimmen: 264 | Diskussion
Anzeige: Roland Aircraft
Statistik Alle Mitglieder

Aktuell sind 7 Besucher online, davon 2 Mitglieder und 5 Gäste.


Mitglieder online:
HansOtto  Achi 

Anzeige: EasyVFR